Hlavní strana
METAR-TAF:

METAR-TAF

Letiště :

Cuenca, Ekvádor

zeměpisná šířka: 02-53-22S, zeměpisná délka: 078-59-04W, výška: 2532 m

Aktuální stav počasí

Zpráva byla vytvořena před 10 minutami, v 11:00 UTC
Severní vítr 3 kt
Teplota 11°C
Vlhkost vzduchu 87%
Tlak 1025 hPa
Viditelnost 10 km a více
Skoro jasno ve výšce 1000 ft
Zataženo ve výšce 4000 ft

METAR: SECU 241100Z 01003KT 9999 FEW010 OVC040 11/09 Q1025

Čas: 06:10 (11:10 UTC)


TAF: chybějící

Stav a předpovědi počasí z více než 4 000 letišť (zprávy METAR a TAF).

Červené a žluté tečky na mapě představují dostupné meteorologické stanice.

Když kurzor umístíte na tečku, zobrazí se název stanice.

Pak kliknutím zobrazíte stav a předpověď počasí.

Chcete-li změnit mapu, kliknutím na zelené tlačítko se znaménkem +mapu přiblížíte, kliknutím na zelené tlačítko se znaménkem – mapu oddálíte a kliknutím na zelené šipky přejdete na sousední mapy.


METAR-TAF: